Terminal Aerodrome Forecast
Issued by NWS

Home | Current Version | Previous Version | Text Only | Print | Product List | Glossary Off
Versions: 1 2 3 4 5 6 7 8 9 10 11 12 13

000
FTUS41 KCLE 160500
TAFFDY
TAF
KFDY 160520Z 1606/1706 30003KT P6SM SKC
     FM161500 14008KT P6SM SCT250
     FM162000 12011KT P6SM BKN250
     FM170200 10008KT P6SM BKN250=

USA.gov is the U.S. government's official web portal to all federal, state and local government web resources and services.